Terminal Aerodrome Forecast
Issued by NWS

Home | Current Version | Previous Version | Text Only | Print | Product List | Glossary On
Versions: 1 2 3 4 5 6 7 8 9 10 11 12 13 14 15 16 17 18 19 20 21 22 23 24 25 26 27 28 29 30 31 32 33 34 35 36 37 38 39 40 41
000
FTUS44 KHGX 270052 AAD
TAFIAH
TAF AMD
KIAH 270052Z 2701/2806 33009G20KT 4SM -TSRA BKN025CB BKN070 OVC130
      TEMPO 2701/2703 2SM +TSRA BR BKN015CB
     FM270500 14014KT P6SM BKN020 OVC040
     FM270900 16009KT P6SM SCT008 OVC015
     FM271500 17011KT P6SM VCSH BKN015 BKN060
     FM271800 15016G22KT P6SM VCTS OVC019CB
     FM272300 16011G19KT P6SM SCT035 OVC050=

USA.gov is the U.S. government's official web portal to all federal, state and local government web resources and services.